sensor_id;sensor_type;location;lat;lon;timestamp;P1;durP1;ratioP1;P2;durP2;ratioP2
81619;SDS011;71028;53.410;6.710;2023-09-30T00:01:02;10.43;;;2.47;;
81619;SDS011;71028;53.410;6.710;2023-09-30T00:03:28;9.73;;;2.50;;
81619;SDS011;71028;53.410;6.710;2023-09-30T00:05:54;10.40;;;2.80;;
81619;SDS011;71028;53.410;6.710;2023-09-30T00:08:20;7.60;;;2.47;;
81619;SDS011;71028;53.410;6.710;2023-09-30T00:10:46;6.90;;;2.53;;
81619;SDS011;71028;53.410;6.710;2023-09-30T00:13:12;8.40;;;2.70;;
81619;SDS011;71028;53.410;6.710;2023-09-30T00:15:39;6.32;;;2.58;;
81619;SDS011;71028;53.410;6.710;2023-09-30T00:18:06;7.00;;;2.67;;
81619;SDS011;71028;53.410;6.710;2023-09-30T00:20:32;6.22;;;2.38;;
81619;SDS011;71028;53.410;6.710;2023-09-30T00:22:58;10.60;;;2.55;;
81619;SDS011;71028;53.410;6.710;2023-09-30T00:25:24;6.25;;;2.35;;
81619;SDS011;71028;53.410;6.710;2023-09-30T00:27:50;5.72;;;2.35;;
81619;SDS011;71028;53.410;6.710;2023-09-30T00:30:16;6.72;;;2.50;;
81619;SDS011;71028;53.410;6.710;2023-09-30T00:32:42;9.07;;;2.40;;
81619;SDS011;71028;53.410;6.710;2023-09-30T00:35:08;7.43;;;2.92;;
81619;SDS011;71028;53.410;6.710;2023-09-30T00:37:39;7.60;;;2.63;;
81619;SDS011;71028;53.410;6.710;2023-09-30T00:40:06;7.57;;;2.38;;
81619;SDS011;71028;53.410;6.710;2023-09-30T00:42:36;6.05;;;2.70;;
81619;SDS011;71028;53.410;6.710;2023-09-30T00:45:03;8.68;;;2.75;;
81619;SDS011;71028;53.410;6.710;2023-09-30T00:47:30;6.78;;;2.30;;
81619;SDS011;71028;53.410;6.710;2023-09-30T00:49:56;5.88;;;2.38;;
81619;SDS011;71028;53.410;6.710;2023-09-30T00:52:22;7.20;;;2.40;;
81619;SDS011;71028;53.410;6.710;2023-09-30T00:54:48;10.02;;;2.95;;
81619;SDS011;71028;53.410;6.710;2023-09-30T00:57:14;6.60;;;2.40;;
81619;SDS011;71028;53.410;6.710;2023-09-30T00:59:41;11.93;;;2.53;;
81619;SDS011;71028;53.410;6.710;2023-09-30T01:02:07;8.90;;;3.00;;
81619;SDS011;71028;53.410;6.710;2023-09-30T01:04:33;8.07;;;2.40;;
81619;SDS011;71028;53.410;6.710;2023-09-30T01:06:59;6.63;;;2.30;;
81619;SDS011;71028;53.410;6.710;2023-09-30T01:09:25;6.90;;;2.33;;
81619;SDS011;71028;53.410;6.710;2023-09-30T01:11:51;8.18;;;2.40;;
81619;SDS011;71028;53.410;6.710;2023-09-30T01:14:24;7.40;;;2.80;;
81619;SDS011;71028;53.410;6.710;2023-09-30T01:16:50;8.88;;;2.97;;
81619;SDS011;71028;53.410;6.710;2023-09-30T01:19:16;7.22;;;2.65;;
81619;SDS011;71028;53.410;6.710;2023-09-30T01:21:43;6.88;;;2.67;;
81619;SDS011;71028;53.410;6.710;2023-09-30T01:24:13;4.47;;;2.28;;
81619;SDS011;71028;53.410;6.710;2023-09-30T01:26:39;6.22;;;2.15;;
81619;SDS011;71028;53.410;6.710;2023-09-30T01:29:07;5.97;;;2.63;;
81619;SDS011;71028;53.410;6.710;2023-09-30T01:31:36;6.47;;;2.38;;
81619;SDS011;71028;53.410;6.710;2023-09-30T01:34:02;8.27;;;2.35;;
81619;SDS011;71028;53.410;6.710;2023-09-30T01:36:28;7.75;;;2.60;;
81619;SDS011;71028;53.410;6.710;2023-09-30T01:38:54;8.32;;;3.10;;
81619;SDS011;71028;53.410;6.710;2023-09-30T01:41:20;6.03;;;2.17;;
81619;SDS011;71028;53.410;6.710;2023-09-30T01:43:46;7.20;;;2.65;;
81619;SDS011;71028;53.410;6.710;2023-09-30T01:46:12;6.07;;;2.08;;
81619;SDS011;71028;53.410;6.710;2023-09-30T01:48:38;9.32;;;2.50;;
81619;SDS011;71028;53.410;6.710;2023-09-30T01:51:04;8.13;;;2.33;;
81619;SDS011;71028;53.410;6.710;2023-09-30T01:53:31;10.95;;;2.58;;
81619;SDS011;71028;53.410;6.710;2023-09-30T01:55:57;5.97;;;2.40;;
81619;SDS011;71028;53.410;6.710;2023-09-30T01:58:23;6.47;;;2.40;;
81619;SDS011;71028;53.410;6.710;2023-09-30T02:00:50;8.00;;;2.97;;
81619;SDS011;71028;53.410;6.710;2023-09-30T02:03:16;6.45;;;2.95;;
81619;SDS011;71028;53.410;6.710;2023-09-30T02:05:42;6.97;;;2.47;;
81619;SDS011;71028;53.410;6.710;2023-09-30T02:08:08;6.28;;;2.28;;
81619;SDS011;71028;53.410;6.710;2023-09-30T02:10:35;6.32;;;2.28;;
81619;SDS011;71028;53.410;6.710;2023-09-30T02:13:01;5.78;;;2.05;;
81619;SDS011;71028;53.410;6.710;2023-09-30T02:15:30;8.20;;;2.28;;
81619;SDS011;71028;53.410;6.710;2023-09-30T02:17:57;8.32;;;2.80;;
81619;SDS011;71028;53.410;6.710;2023-09-30T02:20:25;5.38;;;2.38;;
81619;SDS011;71028;53.410;6.710;2023-09-30T02:22:55;5.65;;;2.20;;
81619;SDS011;71028;53.410;6.710;2023-09-30T02:25:21;7.65;;;2.70;;
81619;SDS011;71028;53.410;6.710;2023-09-30T02:27:47;8.30;;;2.42;;
81619;SDS011;71028;53.410;6.710;2023-09-30T02:30:14;5.22;;;2.33;;
81619;SDS011;71028;53.410;6.710;2023-09-30T02:32:41;8.45;;;2.08;;
81619;SDS011;71028;53.410;6.710;2023-09-30T02:35:07;6.25;;;2.25;;
81619;SDS011;71028;53.410;6.710;2023-09-30T02:37:36;4.28;;;2.00;;
81619;SDS011;71028;53.410;6.710;2023-09-30T02:40:02;7.43;;;2.15;;
81619;SDS011;71028;53.410;6.710;2023-09-30T02:42:30;7.97;;;2.42;;
81619;SDS011;71028;53.410;6.710;2023-09-30T02:44:56;4.60;;;2.00;;
81619;SDS011;71028;53.410;6.710;2023-09-30T02:47:22;7.30;;;2.95;;
81619;SDS011;71028;53.410;6.710;2023-09-30T02:49:48;8.55;;;2.53;;
81619;SDS011;71028;53.410;6.710;2023-09-30T02:52:14;5.22;;;2.25;;
81619;SDS011;71028;53.410;6.710;2023-09-30T02:54:40;5.85;;;2.13;;
81619;SDS011;71028;53.410;6.710;2023-09-30T02:57:06;6.20;;;2.08;;
81619;SDS011;71028;53.410;6.710;2023-09-30T02:59:34;4.57;;;1.90;;
81619;SDS011;71028;53.410;6.710;2023-09-30T03:02:01;8.27;;;2.17;;
81619;SDS011;71028;53.410;6.710;2023-09-30T03:04:28;4.70;;;2.25;;
81619;SDS011;71028;53.410;6.710;2023-09-30T03:06:54;7.25;;;2.70;;
81619;SDS011;71028;53.410;6.710;2023-09-30T03:09:21;8.63;;;2.20;;
81619;SDS011;71028;53.410;6.710;2023-09-30T03:11:47;6.03;;;2.08;;
81619;SDS011;71028;53.410;6.710;2023-09-30T03:14:14;5.30;;;2.10;;
81619;SDS011;71028;53.410;6.710;2023-09-30T03:16:41;5.40;;;2.00;;
81619;SDS011;71028;53.410;6.710;2023-09-30T03:19:08;7.35;;;2.70;;
81619;SDS011;71028;53.410;6.710;2023-09-30T03:21:36;6.75;;;2.30;;
81619;SDS011;71028;53.410;6.710;2023-09-30T03:24:05;6.43;;;2.33;;
81619;SDS011;71028;53.410;6.710;2023-09-30T03:28:58;8.15;;;2.58;;
81619;SDS011;71028;53.410;6.710;2023-09-30T03:31:24;7.90;;;2.65;;
81619;SDS011;71028;53.410;6.710;2023-09-30T03:33:51;8.35;;;2.58;;
81619;SDS011;71028;53.410;6.710;2023-09-30T03:36:22;7.63;;;2.72;;
81619;SDS011;71028;53.410;6.710;2023-09-30T03:38:51;7.45;;;2.38;;
81619;SDS011;71028;53.410;6.710;2023-09-30T03:41:19;7.97;;;2.30;;
81619;SDS011;71028;53.410;6.710;2023-09-30T03:43:46;6.78;;;1.92;;
81619;SDS011;71028;53.410;6.710;2023-09-30T03:46:14;5.28;;;2.55;;
81619;SDS011;71028;53.410;6.710;2023-09-30T03:48:40;5.47;;;1.80;;
81619;SDS011;71028;53.410;6.710;2023-09-30T03:51:16;5.43;;;2.13;;
81619;SDS011;71028;53.410;6.710;2023-09-30T03:53:43;3.45;;;2.03;;
81619;SDS011;71028;53.410;6.710;2023-09-30T03:56:10;10.88;;;2.25;;
81619;SDS011;71028;53.410;6.710;2023-09-30T03:58:39;5.68;;;2.10;;
81619;SDS011;71028;53.410;6.710;2023-09-30T04:01:06;10.68;;;3.15;;
81619;SDS011;71028;53.410;6.710;2023-09-30T04:03:33;5.63;;;2.22;;
81619;SDS011;71028;53.410;6.710;2023-09-30T04:06:00;6.90;;;2.67;;
81619;SDS011;71028;53.410;6.710;2023-09-30T04:08:28;8.55;;;2.70;;
81619;SDS011;71028;53.410;6.710;2023-09-30T04:10:54;7.25;;;2.42;;
81619;SDS011;71028;53.410;6.710;2023-09-30T04:13:20;7.25;;;2.55;;
81619;SDS011;71028;53.410;6.710;2023-09-30T04:15:46;5.72;;;2.42;;
81619;SDS011;71028;53.410;6.710;2023-09-30T04:18:14;5.72;;;2.13;;
81619;SDS011;71028;53.410;6.710;2023-09-30T04:20:40;5.95;;;2.10;;
81619;SDS011;71028;53.410;6.710;2023-09-30T04:23:06;4.75;;;2.58;;
81619;SDS011;71028;53.410;6.710;2023-09-30T04:25:34;6.72;;;2.50;;
81619;SDS011;71028;53.410;6.710;2023-09-30T04:28:01;8.60;;;2.78;;
81619;SDS011;71028;53.410;6.710;2023-09-30T04:30:27;5.70;;;2.20;;
81619;SDS011;71028;53.410;6.710;2023-09-30T04:32:54;6.63;;;2.25;;
81619;SDS011;71028;53.410;6.710;2023-09-30T04:35:21;7.10;;;2.63;;
81619;SDS011;71028;53.410;6.710;2023-09-30T04:37:47;6.03;;;2.33;;
81619;SDS011;71028;53.410;6.710;2023-09-30T04:40:13;15.60;;;3.00;;
81619;SDS011;71028;53.410;6.710;2023-09-30T04:42:45;6.20;;;2.40;;
81619;SDS011;71028;53.410;6.710;2023-09-30T04:45:14;8.73;;;2.55;;
81619;SDS011;71028;53.410;6.710;2023-09-30T04:47:45;7.00;;;2.42;;
81619;SDS011;71028;53.410;6.710;2023-09-30T04:50:13;9.15;;;2.50;;
81619;SDS011;71028;53.410;6.710;2023-09-30T04:52:41;5.28;;;2.22;;
81619;SDS011;71028;53.410;6.710;2023-09-30T04:55:07;10.13;;;2.40;;
81619;SDS011;71028;53.410;6.710;2023-09-30T04:57:33;5.55;;;2.55;;
81619;SDS011;71028;53.410;6.710;2023-09-30T04:59:59;5.13;;;2.33;;
81619;SDS011;71028;53.410;6.710;2023-09-30T05:02:26;6.07;;;2.22;;
81619;SDS011;71028;53.410;6.710;2023-09-30T05:04:52;8.15;;;2.30;;
81619;SDS011;71028;53.410;6.710;2023-09-30T05:07:21;9.93;;;2.65;;
81619;SDS011;71028;53.410;6.710;2023-09-30T05:09:47;7.35;;;2.80;;
81619;SDS011;71028;53.410;6.710;2023-09-30T05:12:13;6.68;;;2.58;;
81619;SDS011;71028;53.410;6.710;2023-09-30T05:14:41;5.55;;;2.10;;
81619;SDS011;71028;53.410;6.710;2023-09-30T05:17:08;7.30;;;2.50;;
81619;SDS011;71028;53.410;6.710;2023-09-30T05:19:34;6.78;;;2.47;;
81619;SDS011;71028;53.410;6.710;2023-09-30T05:22:02;8.02;;;2.25;;
81619;SDS011;71028;53.410;6.710;2023-09-30T05:24:28;4.32;;;2.00;;
81619;SDS011;71028;53.410;6.710;2023-09-30T05:26:54;6.38;;;2.63;;
81619;SDS011;71028;53.410;6.710;2023-09-30T05:29:20;6.97;;;2.33;;
81619;SDS011;71028;53.410;6.710;2023-09-30T05:31:47;7.85;;;2.33;;
81619;SDS011;71028;53.410;6.710;2023-09-30T05:34:13;4.40;;;2.58;;
81619;SDS011;71028;53.410;6.710;2023-09-30T05:36:39;6.00;;;2.30;;
81619;SDS011;71028;53.410;6.710;2023-09-30T05:39:05;6.22;;;2.15;;
81619;SDS011;71028;53.410;6.710;2023-09-30T05:41:35;9.43;;;2.63;;
81619;SDS011;71028;53.410;6.710;2023-09-30T05:44:02;5.32;;;2.03;;
81619;SDS011;71028;53.410;6.710;2023-09-30T05:46:29;6.97;;;2.58;;
81619;SDS011;71028;53.410;6.710;2023-09-30T05:48:56;5.75;;;2.38;;
81619;SDS011;71028;53.410;6.710;2023-09-30T05:51:22;4.80;;;2.60;;
81619;SDS011;71028;53.410;6.710;2023-09-30T05:53:48;6.72;;;2.47;;
81619;SDS011;71028;53.410;6.710;2023-09-30T05:56:14;6.65;;;2.47;;
81619;SDS011;71028;53.410;6.710;2023-09-30T05:58:41;7.70;;;2.65;;
81619;SDS011;71028;53.410;6.710;2023-09-30T06:01:07;5.15;;;2.80;;
81619;SDS011;71028;53.410;6.710;2023-09-30T06:03:36;5.72;;;2.05;;
81619;SDS011;71028;53.410;6.710;2023-09-30T06:06:14;6.88;;;2.13;;
81619;SDS011;71028;53.410;6.710;2023-09-30T06:08:41;7.32;;;2.40;;
81619;SDS011;71028;53.410;6.710;2023-09-30T06:11:07;5.07;;;2.55;;
81619;SDS011;71028;53.410;6.710;2023-09-30T06:13:33;4.32;;;2.28;;
81619;SDS011;71028;53.410;6.710;2023-09-30T06:15:59;6.32;;;2.17;;
81619;SDS011;71028;53.410;6.710;2023-09-30T06:18:27;4.93;;;2.40;;
81619;SDS011;71028;53.410;6.710;2023-09-30T06:20:53;5.53;;;2.28;;
81619;SDS011;71028;53.410;6.710;2023-09-30T06:23:19;5.93;;;2.10;;
81619;SDS011;71028;53.410;6.710;2023-09-30T06:25:45;6.10;;;2.70;;
81619;SDS011;71028;53.410;6.710;2023-09-30T06:28:11;5.22;;;2.60;;
81619;SDS011;71028;53.410;6.710;2023-09-30T06:30:39;7.45;;;2.50;;
81619;SDS011;71028;53.410;6.710;2023-09-30T06:33:07;6.20;;;2.30;;
81619;SDS011;71028;53.410;6.710;2023-09-30T06:35:36;4.38;;;2.40;;
81619;SDS011;71028;53.410;6.710;2023-09-30T06:38:05;7.57;;;2.90;;
81619;SDS011;71028;53.410;6.710;2023-09-30T06:40:33;7.20;;;2.10;;
81619;SDS011;71028;53.410;6.710;2023-09-30T06:43:00;6.30;;;2.83;;
81619;SDS011;71028;53.410;6.710;2023-09-30T06:45:26;7.45;;;2.58;;
81619;SDS011;71028;53.410;6.710;2023-09-30T06:47:52;6.47;;;2.67;;
81619;SDS011;71028;53.410;6.710;2023-09-30T06:50:19;7.13;;;2.75;;
81619;SDS011;71028;53.410;6.710;2023-09-30T06:52:46;9.38;;;3.05;;
81619;SDS011;71028;53.410;6.710;2023-09-30T06:55:14;6.30;;;2.33;;
81619;SDS011;71028;53.410;6.710;2023-09-30T06:57:41;9.20;;;2.60;;
81619;SDS011;71028;53.410;6.710;2023-09-30T07:00:11;6.65;;;2.53;;
81619;SDS011;71028;53.410;6.710;2023-09-30T07:02:38;5.53;;;2.38;;
81619;SDS011;71028;53.410;6.710;2023-09-30T07:05:06;7.35;;;2.67;;
81619;SDS011;71028;53.410;6.710;2023-09-30T07:07:32;4.65;;;2.33;;
81619;SDS011;71028;53.410;6.710;2023-09-30T07:09:58;6.95;;;2.45;;
81619;SDS011;71028;53.410;6.710;2023-09-30T07:12:24;10.13;;;2.80;;
81619;SDS011;71028;53.410;6.710;2023-09-30T07:14:51;6.50;;;2.72;;
81619;SDS011;71028;53.410;6.710;2023-09-30T07:17:17;8.70;;;2.75;;
81619;SDS011;71028;53.410;6.710;2023-09-30T07:19:43;8.65;;;2.75;;
81619;SDS011;71028;53.410;6.710;2023-09-30T07:22:09;7.85;;;2.90;;
81619;SDS011;71028;53.410;6.710;2023-09-30T07:24:35;9.13;;;2.88;;
81619;SDS011;71028;53.410;6.710;2023-09-30T07:27:01;6.25;;;2.75;;
81619;SDS011;71028;53.410;6.710;2023-09-30T07:29:27;5.07;;;2.50;;
81619;SDS011;71028;53.410;6.710;2023-09-30T07:31:53;7.20;;;2.70;;
81619;SDS011;71028;53.410;6.710;2023-09-30T07:34:19;8.07;;;3.08;;
81619;SDS011;71028;53.410;6.710;2023-09-30T07:36:46;7.50;;;2.47;;
81619;SDS011;71028;53.410;6.710;2023-09-30T07:39:12;9.70;;;2.47;;
81619;SDS011;71028;53.410;6.710;2023-09-30T07:41:38;4.38;;;2.10;;
81619;SDS011;71028;53.410;6.710;2023-09-30T07:44:04;6.30;;;2.58;;
81619;SDS011;71028;53.410;6.710;2023-09-30T07:46:30;7.57;;;2.72;;
81619;SDS011;71028;53.410;6.710;2023-09-30T07:48:56;8.32;;;2.40;;
81619;SDS011;71028;53.410;6.710;2023-09-30T07:51:24;7.38;;;2.47;;
81619;SDS011;71028;53.410;6.710;2023-09-30T07:53:50;7.68;;;3.25;;
81619;SDS011;71028;53.410;6.710;2023-09-30T07:56:17;7.60;;;2.17;;
81619;SDS011;71028;53.410;6.710;2023-09-30T07:58:43;10.88;;;2.83;;
81619;SDS011;71028;53.410;6.710;2023-09-30T08:01:09;7.10;;;2.65;;
81619;SDS011;71028;53.410;6.710;2023-09-30T08:03:35;4.40;;;2.10;;
81619;SDS011;71028;53.410;6.710;2023-09-30T08:06:02;7.03;;;2.42;;
81619;SDS011;71028;53.410;6.710;2023-09-30T08:08:28;5.80;;;2.13;;
81619;SDS011;71028;53.410;6.710;2023-09-30T08:10:55;5.97;;;2.78;;
81619;SDS011;71028;53.410;6.710;2023-09-30T08:13:22;7.35;;;2.90;;
81619;SDS011;71028;53.410;6.710;2023-09-30T08:15:49;6.78;;;2.72;;
81619;SDS011;71028;53.410;6.710;2023-09-30T08:18:16;4.90;;;2.45;;
81619;SDS011;71028;53.410;6.710;2023-09-30T08:20:42;9.45;;;3.60;;
81619;SDS011;71028;53.410;6.710;2023-09-30T08:23:08;5.75;;;2.45;;
81619;SDS011;71028;53.410;6.710;2023-09-30T08:25:34;6.95;;;2.55;;
81619;SDS011;71028;53.410;6.710;2023-09-30T08:28:00;5.90;;;2.72;;
81619;SDS011;71028;53.410;6.710;2023-09-30T08:30:26;7.88;;;2.40;;
81619;SDS011;71028;53.410;6.710;2023-09-30T08:32:52;6.65;;;2.45;;
81619;SDS011;71028;53.410;6.710;2023-09-30T08:35:18;6.47;;;2.95;;
81619;SDS011;71028;53.410;6.710;2023-09-30T08:37:44;6.22;;;2.30;;
81619;SDS011;71028;53.410;6.710;2023-09-30T08:40:10;5.40;;;2.15;;
81619;SDS011;71028;53.410;6.710;2023-09-30T08:42:38;5.13;;;2.70;;
81619;SDS011;71028;53.410;6.710;2023-09-30T08:45:04;6.07;;;2.85;;
81619;SDS011;71028;53.410;6.710;2023-09-30T08:47:31;5.88;;;2.28;;
81619;SDS011;71028;53.410;6.710;2023-09-30T08:49:59;5.05;;;1.90;;
81619;SDS011;71028;53.410;6.710;2023-09-30T08:52:31;6.85;;;2.50;;
81619;SDS011;71028;53.410;6.710;2023-09-30T08:54:58;6.28;;;2.55;;
81619;SDS011;71028;53.410;6.710;2023-09-30T08:57:25;5.45;;;2.03;;
81619;SDS011;71028;53.410;6.710;2023-09-30T08:59:54;3.50;;;1.77;;
81619;SDS011;71028;53.410;6.710;2023-09-30T09:02:20;5.28;;;2.00;;
81619;SDS011;71028;53.410;6.710;2023-09-30T09:04:46;6.03;;;2.67;;
81619;SDS011;71028;53.410;6.710;2023-09-30T09:07:14;8.43;;;2.15;;
81619;SDS011;71028;53.410;6.710;2023-09-30T09:09:40;4.63;;;1.85;;
81619;SDS011;71028;53.410;6.710;2023-09-30T09:12:06;6.35;;;1.77;;
81619;SDS011;71028;53.410;6.710;2023-09-30T09:14:44;7.63;;;2.30;;
81619;SDS011;71028;53.410;6.710;2023-09-30T09:17:11;5.10;;;1.88;;
81619;SDS011;71028;53.410;6.710;2023-09-30T09:19:38;3.78;;;1.88;;
81619;SDS011;71028;53.410;6.710;2023-09-30T09:22:04;5.78;;;1.95;;
81619;SDS011;71028;53.410;6.710;2023-09-30T09:24:35;9.75;;;2.38;;
81619;SDS011;71028;53.410;6.710;2023-09-30T09:27:09;8.43;;;2.28;;
81619;SDS011;71028;53.410;6.710;2023-09-30T09:29:36;8.50;;;2.40;;
81619;SDS011;71028;53.410;6.710;2023-09-30T09:32:09;5.60;;;1.77;;
81619;SDS011;71028;53.410;6.710;2023-09-30T09:34:35;7.60;;;1.95;;
81619;SDS011;71028;53.410;6.710;2023-09-30T09:37:12;7.25;;;1.90;;
81619;SDS011;71028;53.410;6.710;2023-09-30T09:39:39;4.72;;;1.60;;
81619;SDS011;71028;53.410;6.710;2023-09-30T09:42:05;4.70;;;1.70;;
81619;SDS011;71028;53.410;6.710;2023-09-30T09:44:31;4.88;;;1.30;;
81619;SDS011;71028;53.410;6.710;2023-09-30T09:46:58;7.72;;;1.63;;
81619;SDS011;71028;53.410;6.710;2023-09-30T09:49:26;4.40;;;1.65;;
81619;SDS011;71028;53.410;6.710;2023-09-30T09:51:54;5.22;;;1.35;;
81619;SDS011;71028;53.410;6.710;2023-09-30T09:54:20;5.75;;;1.38;;
81619;SDS011;71028;53.410;6.710;2023-09-30T09:56:47;7.85;;;2.08;;
81619;SDS011;71028;53.410;6.710;2023-09-30T09:59:14;5.90;;;1.70;;
81619;SDS011;71028;53.410;6.710;2023-09-30T10:01:40;5.05;;;1.80;;
81619;SDS011;71028;53.410;6.710;2023-09-30T10:04:07;5.72;;;1.50;;
81619;SDS011;71028;53.410;6.710;2023-09-30T10:06:33;4.47;;;1.33;;
81619;SDS011;71028;53.410;6.710;2023-09-30T10:11:30;3.25;;;1.15;;
81619;SDS011;71028;53.410;6.710;2023-09-30T10:13:57;3.92;;;1.00;;
81619;SDS011;71028;53.410;6.710;2023-09-30T10:21:33;6.85;;;1.60;;
81619;SDS011;71028;53.410;6.710;2023-09-30T10:24:45;6.30;;;1.38;;
81619;SDS011;71028;53.410;6.710;2023-09-30T10:26:46;4.68;;;1.33;;
81619;SDS011;71028;53.410;6.710;2023-09-30T10:29:12;5.25;;;1.40;;
81619;SDS011;71028;53.410;6.710;2023-09-30T10:31:51;6.55;;;1.25;;
81619;SDS011;71028;53.410;6.710;2023-09-30T10:34:21;6.40;;;1.27;;
81619;SDS011;71028;53.410;6.710;2023-09-30T10:36:47;7.68;;;1.40;;
81619;SDS011;71028;53.410;6.710;2023-09-30T10:39:15;4.45;;;1.38;;
81619;SDS011;71028;53.410;6.710;2023-09-30T10:42:01;8.80;;;2.30;;
81619;SDS011;71028;53.410;6.710;2023-09-30T10:46:59;6.43;;;1.25;;
81619;SDS011;71028;53.410;6.710;2023-09-30T10:54:22;7.00;;;1.63;;
81619;SDS011;71028;53.410;6.710;2023-09-30T10:56:51;6.13;;;1.42;;
81619;SDS011;71028;53.410;6.710;2023-09-30T10:59:21;7.45;;;1.30;;
81619;SDS011;71028;53.410;6.710;2023-09-30T11:01:47;2.50;;;0.90;;
81619;SDS011;71028;53.410;6.710;2023-09-30T11:04:13;6.50;;;1.33;;
81619;SDS011;71028;53.410;6.710;2023-09-30T11:06:41;2.97;;;1.13;;
81619;SDS011;71028;53.410;6.710;2023-09-30T11:09:07;6.57;;;1.77;;
81619;SDS011;71028;53.410;6.710;2023-09-30T11:11:40;4.82;;;1.67;;
81619;SDS011;71028;53.410;6.710;2023-09-30T11:16:42;4.85;;;1.75;;
81619;SDS011;71028;53.410;6.710;2023-09-30T11:19:09;4.78;;;1.30;;
81619;SDS011;71028;53.410;6.710;2023-09-30T11:21:35;4.78;;;1.00;;
81619;SDS011;71028;53.410;6.710;2023-09-30T11:24:01;6.68;;;1.42;;
81619;SDS011;71028;53.410;6.710;2023-09-30T11:26:30;7.15;;;1.70;;
81619;SDS011;71028;53.410;6.710;2023-09-30T11:29:03;5.63;;;1.55;;
81619;SDS011;71028;53.410;6.710;2023-09-30T11:31:30;6.60;;;1.35;;
81619;SDS011;71028;53.410;6.710;2023-09-30T11:33:59;5.03;;;1.20;;
81619;SDS011;71028;53.410;6.710;2023-09-30T11:36:28;2.63;;;1.38;;
81619;SDS011;71028;53.410;6.710;2023-09-30T11:38:55;5.10;;;1.65;;
81619;SDS011;71028;53.410;6.710;2023-09-30T11:41:21;4.95;;;1.80;;
81619;SDS011;71028;53.410;6.710;2023-09-30T11:44:00;2.75;;;1.30;;
81619;SDS011;71028;53.410;6.710;2023-09-30T11:46:27;7.60;;;1.27;;
81619;SDS011;71028;53.410;6.710;2023-09-30T11:49:02;3.22;;;1.23;;
81619;SDS011;71028;53.410;6.710;2023-09-30T11:51:42;5.15;;;1.65;;
81619;SDS011;71028;53.410;6.710;2023-09-30T11:54:11;3.08;;;1.20;;
81619;SDS011;71028;53.410;6.710;2023-09-30T11:56:37;2.30;;;1.20;;
81619;SDS011;71028;53.410;6.710;2023-09-30T11:59:03;2.88;;;1.42;;
81619;SDS011;71028;53.410;6.710;2023-09-30T12:01:29;4.57;;;1.30;;
81619;SDS011;71028;53.410;6.710;2023-09-30T12:03:57;6.97;;;1.80;;
81619;SDS011;71028;53.410;6.710;2023-09-30T12:06:23;4.05;;;1.60;;
81619;SDS011;71028;53.410;6.710;2023-09-30T12:08:51;4.88;;;1.05;;
81619;SDS011;71028;53.410;6.710;2023-09-30T12:11:18;3.95;;;1.00;;
81619;SDS011;71028;53.410;6.710;2023-09-30T12:13:44;6.10;;;1.42;;
81619;SDS011;71028;53.410;6.710;2023-09-30T12:16:10;3.65;;;1.33;;
81619;SDS011;71028;53.410;6.710;2023-09-30T12:18:39;6.28;;;1.35;;
81619;SDS011;71028;53.410;6.710;2023-09-30T12:21:06;6.22;;;2.03;;
81619;SDS011;71028;53.410;6.710;2023-09-30T12:23:33;3.40;;;1.45;;
81619;SDS011;71028;53.410;6.710;2023-09-30T12:26:00;4.80;;;1.15;;
81619;SDS011;71028;53.410;6.710;2023-09-30T12:28:29;7.72;;;1.20;;
81619;SDS011;71028;53.410;6.710;2023-09-30T12:30:57;2.67;;;1.10;;
81619;SDS011;71028;53.410;6.710;2023-09-30T12:33:23;4.35;;;1.05;;
81619;SDS011;71028;53.410;6.710;2023-09-30T12:35:49;3.25;;;1.00;;
81619;SDS011;71028;53.410;6.710;2023-09-30T12:38:16;7.38;;;1.80;;
81619;SDS011;71028;53.410;6.710;2023-09-30T12:40:42;4.97;;;1.17;;
81619;SDS011;71028;53.410;6.710;2023-09-30T12:43:08;4.72;;;1.05;;
81619;SDS011;71028;53.410;6.710;2023-09-30T12:45:35;4.32;;;1.25;;
81619;SDS011;71028;53.410;6.710;2023-09-30T12:48:03;4.40;;;1.25;;
81619;SDS011;71028;53.410;6.710;2023-09-30T12:50:29;4.20;;;1.15;;
81619;SDS011;71028;53.410;6.710;2023-09-30T12:52:55;5.95;;;1.05;;
81619;SDS011;71028;53.410;6.710;2023-09-30T12:55:21;5.65;;;1.20;;
81619;SDS011;71028;53.410;6.710;2023-09-30T12:57:47;2.55;;;1.30;;
81619;SDS011;71028;53.410;6.710;2023-09-30T13:00:13;6.75;;;1.38;;
81619;SDS011;71028;53.410;6.710;2023-09-30T13:02:41;5.10;;;1.25;;
81619;SDS011;71028;53.410;6.710;2023-09-30T13:05:07;4.45;;;1.02;;
81619;SDS011;71028;53.410;6.710;2023-09-30T13:07:33;5.68;;;1.13;;
81619;SDS011;71028;53.410;6.710;2023-09-30T13:09:59;3.25;;;1.10;;
81619;SDS011;71028;53.410;6.710;2023-09-30T13:12:30;5.68;;;1.27;;
81619;SDS011;71028;53.410;6.710;2023-09-30T13:14:58;4.95;;;1.23;;
81619;SDS011;71028;53.410;6.710;2023-09-30T13:17:24;2.80;;;1.17;;
81619;SDS011;71028;53.410;6.710;2023-09-30T13:19:50;3.38;;;1.20;;
81619;SDS011;71028;53.410;6.710;2023-09-30T13:22:19;2.83;;;1.05;;
81619;SDS011;71028;53.410;6.710;2023-09-30T13:24:46;5.55;;;1.48;;
81619;SDS011;71028;53.410;6.710;2023-09-30T13:27:12;4.53;;;1.50;;
81619;SDS011;71028;53.410;6.710;2023-09-30T13:29:40;3.45;;;1.05;;
81619;SDS011;71028;53.410;6.710;2023-09-30T13:32:08;5.35;;;1.38;;
81619;SDS011;71028;53.410;6.710;2023-09-30T13:34:34;4.75;;;1.30;;
81619;SDS011;71028;53.410;6.710;2023-09-30T13:37:00;6.72;;;1.60;;
81619;SDS011;71028;53.410;6.710;2023-09-30T13:39:26;4.28;;;1.10;;
81619;SDS011;71028;53.410;6.710;2023-09-30T13:41:54;3.88;;;1.15;;
81619;SDS011;71028;53.410;6.710;2023-09-30T13:44:20;5.40;;;1.35;;
81619;SDS011;71028;53.410;6.710;2023-09-30T13:46:46;5.55;;;1.30;;
81619;SDS011;71028;53.410;6.710;2023-09-30T13:49:13;5.18;;;1.17;;
81619;SDS011;71028;53.410;6.710;2023-09-30T13:51:39;4.25;;;1.00;;
81619;SDS011;71028;53.410;6.710;2023-09-30T13:54:05;6.55;;;1.40;;
81619;SDS011;71028;53.410;6.710;2023-09-30T13:56:34;5.45;;;1.25;;
81619;SDS011;71028;53.410;6.710;2023-09-30T13:59:00;5.82;;;1.60;;
81619;SDS011;71028;53.410;6.710;2023-09-30T14:01:26;6.93;;;1.17;;
81619;SDS011;71028;53.410;6.710;2023-09-30T14:03:52;3.72;;;1.10;;
81619;SDS011;71028;53.410;6.710;2023-09-30T14:06:20;4.18;;;1.25;;
81619;SDS011;71028;53.410;6.710;2023-09-30T14:08:46;6.75;;;1.27;;
81619;SDS011;71028;53.410;6.710;2023-09-30T14:11:13;3.63;;;1.13;;
81619;SDS011;71028;53.410;6.710;2023-09-30T14:13:39;3.58;;;1.30;;
81619;SDS011;71028;53.410;6.710;2023-09-30T14:16:05;4.40;;;1.30;;
81619;SDS011;71028;53.410;6.710;2023-09-30T14:18:32;4.68;;;1.10;;
81619;SDS011;71028;53.410;6.710;2023-09-30T14:20:58;8.30;;;1.65;;
81619;SDS011;71028;53.410;6.710;2023-09-30T14:23:26;6.82;;;1.15;;
81619;SDS011;71028;53.410;6.710;2023-09-30T14:25:54;4.95;;;1.20;;
81619;SDS011;71028;53.410;6.710;2023-09-30T14:28:24;5.07;;;1.33;;
81619;SDS011;71028;53.410;6.710;2023-09-30T14:30:50;3.17;;;1.20;;
81619;SDS011;71028;53.410;6.710;2023-09-30T14:33:16;9.05;;;1.77;;
81619;SDS011;71028;53.410;6.710;2023-09-30T14:35:44;3.53;;;0.88;;
81619;SDS011;71028;53.410;6.710;2023-09-30T14:38:10;2.90;;;1.23;;
81619;SDS011;71028;53.410;6.710;2023-09-30T14:40:37;3.50;;;1.00;;
81619;SDS011;71028;53.410;6.710;2023-09-30T14:43:06;1.80;;;1.10;;
81619;SDS011;71028;53.410;6.710;2023-09-30T14:45:39;7.47;;;1.27;;
81619;SDS011;71028;53.410;6.710;2023-09-30T14:48:06;6.22;;;1.40;;
81619;SDS011;71028;53.410;6.710;2023-09-30T14:50:32;8.20;;;1.27;;
81619;SDS011;71028;53.410;6.710;2023-09-30T14:52:58;4.60;;;1.52;;
81619;SDS011;71028;53.410;6.710;2023-09-30T14:55:24;4.50;;;1.60;;
81619;SDS011;71028;53.410;6.710;2023-09-30T14:57:50;6.18;;;1.42;;
81619;SDS011;71028;53.410;6.710;2023-09-30T15:00:16;4.72;;;1.17;;
81619;SDS011;71028;53.410;6.710;2023-09-30T15:02:42;4.15;;;1.30;;
81619;SDS011;71028;53.410;6.710;2023-09-30T15:05:09;3.70;;;1.00;;
81619;SDS011;71028;53.410;6.710;2023-09-30T15:07:36;6.40;;;1.77;;